createdAt,value
2023-08-11T00:03:52.370Z,2.30
2023-08-11T00:08:55.793Z,3.00
2023-08-11T00:13:58.616Z,2.38
2023-08-11T00:19:02.766Z,2.65
2023-08-11T00:24:07.598Z,2.85
2023-08-11T00:29:12.797Z,2.70
2023-08-11T00:34:17.087Z,2.70
2023-08-11T00:39:19.888Z,2.47
2023-08-11T00:44:23.111Z,2.40
2023-08-11T00:49:27.433Z,2.90
2023-08-11T00:54:32.323Z,2.20
2023-08-11T00:59:35.224Z,2.28
2023-08-11T01:04:41.154Z,2.58
2023-08-11T01:09:53.275Z,2.70
2023-08-11T01:15:05.978Z,2.75
2023-08-11T01:20:13.179Z,3.15
2023-08-11T01:25:19.453Z,2.58
2023-08-11T01:30:22.341Z,2.75
2023-08-11T01:35:34.313Z,2.47
2023-08-11T01:40:45.646Z,2.17
2023-08-11T01:45:50.367Z,2.55
2023-08-11T01:50:53.470Z,2.78
2023-08-11T01:55:58.174Z,2.33
2023-08-11T02:01:01.032Z,2.38
2023-08-11T02:06:05.132Z,2.08
2023-08-11T02:11:11.416Z,2.67
2023-08-11T02:16:14.994Z,3.25
2023-08-11T02:21:18.005Z,2.72
2023-08-11T02:26:22.963Z,2.70
2023-08-11T02:31:26.883Z,2.05
2023-08-11T02:36:29.675Z,2.83
2023-08-11T02:41:34.716Z,2.05
2023-08-11T02:46:39.003Z,2.03
2023-08-11T02:51:41.911Z,2.20
2023-08-11T02:56:50.380Z,2.00
2023-08-11T03:01:53.246Z,1.95
2023-08-11T03:06:56.730Z,2.38
2023-08-11T03:12:01.069Z,2.00
2023-08-11T03:17:07.282Z,1.63
2023-08-11T03:22:12.840Z,2.22
2023-08-11T03:27:17.504Z,2.28
2023-08-11T03:32:21.304Z,2.55
2023-08-11T03:37:25.267Z,2.15
2023-08-11T03:42:29.473Z,2.13
2023-08-11T03:47:32.486Z,2.00
2023-08-11T03:52:36.995Z,2.05
2023-08-11T03:57:41.312Z,1.70
2023-08-11T04:07:54.645Z,2.05
2023-08-11T04:12:58.905Z,3.40
2023-08-11T04:18:02.041Z,2.33
2023-08-11T04:23:06.078Z,2.15
2023-08-11T04:28:14.095Z,2.92
2023-08-11T04:33:17.620Z,2.08
2023-08-11T04:38:21.297Z,1.98
2023-08-11T04:43:26.461Z,1.90
2023-08-11T04:48:31.005Z,2.25
2023-08-11T04:53:35.204Z,1.88
2023-08-11T04:58:40.476Z,2.47
2023-08-11T05:03:44.395Z,2.45
2023-08-11T05:08:47.609Z,2.15
2023-08-11T05:13:52.068Z,2.25
2023-08-11T05:18:56.046Z,2.63
2023-08-11T05:23:59.317Z,1.92
2023-08-11T05:29:03.550Z,2.72
2023-08-11T05:34:06.519Z,2.65
2023-08-11T05:39:12.512Z,2.53
2023-08-11T05:44:16.702Z,2.50
2023-08-11T05:49:20.251Z,2.67
2023-08-11T05:54:23.148Z,2.33
2023-08-11T05:59:28.780Z,2.53
2023-08-11T06:04:31.705Z,2.80
2023-08-11T06:09:35.209Z,3.47
2023-08-11T06:14:39.441Z,4.00
2023-08-11T06:19:42.268Z,3.13
2023-08-11T06:24:45.594Z,3.05
2023-08-11T06:29:50.585Z,3.72
2023-08-11T06:34:54.520Z,2.83
2023-08-11T06:39:59.420Z,3.10
2023-08-11T06:45:05.636Z,3.17
2023-08-11T06:50:09.310Z,2.92
2023-08-11T06:55:12.148Z,2.78
2023-08-11T07:00:17.486Z,2.47
2023-08-11T07:05:20.399Z,2.17
2023-08-11T07:10:23.274Z,2.22
2023-08-11T07:15:28.486Z,2.33
2023-08-11T07:20:31.327Z,2.15
2023-08-11T07:25:34.671Z,1.90
2023-08-11T07:30:38.921Z,1.92
2023-08-11T07:35:42.512Z,2.25
2023-08-11T07:40:45.371Z,3.88
2023-08-11T07:45:50.332Z,2.03
2023-08-11T07:50:53.261Z,4.32
2023-08-11T07:55:57.300Z,3.88
2023-08-11T08:01:02.818Z,2.50
2023-08-11T08:06:06.144Z,1.75
2023-08-11T08:11:09.486Z,2.33
2023-08-11T08:16:13.876Z,1.88
2023-08-11T08:21:17.368Z,3.05
2023-08-11T08:26:20.185Z,4.05
2023-08-11T08:31:24.427Z,2.83
2023-08-11T08:36:28.085Z,2.10
2023-08-11T08:41:33.356Z,3.50
2023-08-11T08:46:38.695Z,2.15
2023-08-11T08:51:43.536Z,3.57
2023-08-11T08:56:47.429Z,1.58
2023-08-11T09:01:52.374Z,2.13
2023-08-11T09:06:55.472Z,1.73
2023-08-11T09:11:59.986Z,4.03
2023-08-11T09:17:04.395Z,2.33
2023-08-11T09:22:12.371Z,2.35
2023-08-11T09:27:15.470Z,3.95
2023-08-11T09:32:26.997Z,2.65
2023-08-11T09:37:30.119Z,1.80
2023-08-11T09:42:33.892Z,2.65
2023-08-11T09:47:38.085Z,2.58
2023-08-11T09:52:42.131Z,2.85
2023-08-11T09:57:46.006Z,1.80
2023-08-11T10:02:58.439Z,1.70
2023-08-11T10:08:05.654Z,1.98
2023-08-11T10:13:13.207Z,2.05
2023-08-11T10:18:20.411Z,1.90
2023-08-11T10:23:23.664Z,1.67
2023-08-11T10:28:27.036Z,2.67
2023-08-11T10:33:32.533Z,2.45
2023-08-11T10:38:35.795Z,5.32
2023-08-11T10:43:42.237Z,2.78
2023-08-11T10:48:46.560Z,2.10
2023-08-11T10:53:49.546Z,1.90
2023-08-11T10:58:52.764Z,1.67
2023-08-11T11:03:57.189Z,2.20
2023-08-11T11:09:01.230Z,1.70
2023-08-11T11:14:04.708Z,1.80
2023-08-11T11:19:10.498Z,2.58
2023-08-11T11:24:13.326Z,2.40
2023-08-11T11:29:18.390Z,1.90
2023-08-11T11:34:23.481Z,2.28
2023-08-11T11:39:27.119Z,2.08
2023-08-11T11:44:30.739Z,1.60
2023-08-11T11:49:34.885Z,1.90
2023-08-11T11:54:38.521Z,2.08
2023-08-11T11:59:42.708Z,1.75
2023-08-11T12:04:48.371Z,1.80
2023-08-11T12:09:52.068Z,1.77
2023-08-11T12:14:55.376Z,1.60
2023-08-11T12:19:59.827Z,1.80
2023-08-11T12:25:02.666Z,2.42
2023-08-11T12:30:10.632Z,1.98
2023-08-11T12:35:16.271Z,1.60
2023-08-11T12:40:19.777Z,1.87
2023-08-11T12:45:22.733Z,1.88
2023-08-11T12:50:29.417Z,1.75
2023-08-11T12:55:32.517Z,1.42
2023-08-11T13:00:36.346Z,1.98
2023-08-11T13:05:40.892Z,1.63
2023-08-11T13:10:44.103Z,1.23
2023-08-11T13:15:48.565Z,1.75
2023-08-11T13:30:58.986Z,1.30
2023-08-11T13:36:03.237Z,2.13
2023-08-11T13:41:06.065Z,1.65
2023-08-11T13:46:09.456Z,1.75
2023-08-11T13:51:14.000Z,1.27
2023-08-11T13:56:16.803Z,1.85
2023-08-11T14:01:19.696Z,2.10
2023-08-11T14:06:25.172Z,1.85
2023-08-11T14:11:28.184Z,1.90
2023-08-11T14:16:31.204Z,2.47
2023-08-11T14:21:35.412Z,1.73
2023-08-11T14:26:38.945Z,2.20
2023-08-11T14:31:42.307Z,1.30
2023-08-11T14:36:46.798Z,2.10
2023-08-11T14:41:50.612Z,1.10
2023-08-11T14:51:57.918Z,1.55
2023-08-11T14:57:00.792Z,2.35
2023-08-11T15:02:03.555Z,1.67
2023-08-11T15:07:08.377Z,1.67
2023-08-11T15:12:12.722Z,1.23
2023-08-11T15:17:15.771Z,1.67
2023-08-11T15:22:20.657Z,1.80
2023-08-11T15:27:23.748Z,2.42
2023-08-11T15:32:26.687Z,1.58
2023-08-11T15:37:31.354Z,1.63
2023-08-11T15:42:34.184Z,1.80
2023-08-11T15:47:37.248Z,1.48
2023-08-11T15:52:41.416Z,1.50
2023-08-11T15:57:44.947Z,1.40
2023-08-11T16:02:49.489Z,1.55
2023-08-11T16:07:54.881Z,1.35
2023-08-11T16:12:58.506Z,1.40
2023-08-11T16:18:01.405Z,1.65
2023-08-11T16:23:06.634Z,1.40
2023-08-11T16:28:11.737Z,1.48
2023-08-11T16:33:14.626Z,2.20
2023-08-11T16:38:18.876Z,1.52
2023-08-11T16:43:22.675Z,1.80
2023-08-11T16:48:25.458Z,1.40
2023-08-11T16:53:29.638Z,1.48
2023-08-11T16:58:33.323Z,1.40
2023-08-11T17:03:36.247Z,1.55
2023-08-11T17:13:44.139Z,1.30
2023-08-11T17:18:50.623Z,1.75
2023-08-11T17:23:55.853Z,1.83
2023-08-11T17:28:58.785Z,1.80
2023-08-11T17:34:02.452Z,1.75
2023-08-11T17:39:08.311Z,2.10
2023-08-11T17:44:11.193Z,1.83
2023-08-11T17:49:14.491Z,2.58
2023-08-11T17:54:21.052Z,2.03
2023-08-11T17:59:24.357Z,2.22
2023-08-11T18:04:27.208Z,2.03
2023-08-11T18:09:32.255Z,2.17
2023-08-11T18:14:35.355Z,1.90
2023-08-11T18:19:38.271Z,2.53
2023-08-11T18:24:42.445Z,2.38
2023-08-11T18:29:46.149Z,2.08
2023-08-11T18:34:49.011Z,4.15
2023-08-11T18:39:53.727Z,8.13
2023-08-11T18:44:57.047Z,3.33
2023-08-11T18:50:00.047Z,10.60
2023-08-11T18:55:04.471Z,7.53
2023-08-11T19:00:10.051Z,6.65
2023-08-11T19:05:14.146Z,5.30
2023-08-11T19:10:18.935Z,3.08
2023-08-11T19:15:22.310Z,3.70
2023-08-11T19:20:25.149Z,4.25
2023-08-11T19:25:30.397Z,3.75
2023-08-11T19:30:33.739Z,3.38
2023-08-11T19:35:36.635Z,3.70
2023-08-11T19:40:45.049Z,4.05
2023-08-11T19:45:49.492Z,4.28
2023-08-11T19:50:52.371Z,7.15
2023-08-11T19:55:56.681Z,6.82
2023-08-11T20:01:00.860Z,5.43
2023-08-11T20:06:04.728Z,5.32
2023-08-11T20:11:09.190Z,4.32
2023-08-11T20:16:12.083Z,4.75
2023-08-11T20:21:15.139Z,4.25
2023-08-11T20:26:19.323Z,3.58
2023-08-11T20:31:23.587Z,3.75
2023-08-11T20:36:26.460Z,3.35
2023-08-11T20:41:30.946Z,3.60
2023-08-11T20:46:33.847Z,3.20
2023-08-11T20:51:37.700Z,4.00
2023-08-11T20:56:41.962Z,3.92
2023-08-11T21:01:45.378Z,7.75
2023-08-11T21:06:48.731Z,6.15
2023-08-11T21:11:56.424Z,5.15
2023-08-11T21:17:02.545Z,3.90
2023-08-11T21:22:06.274Z,3.88
2023-08-11T21:27:10.864Z,3.50
2023-08-11T21:32:15.089Z,4.00
2023-08-11T21:37:19.044Z,3.35
2023-08-11T21:42:23.284Z,5.30
2023-08-11T21:47:27.133Z,5.30
2023-08-11T21:52:31.001Z,4.57
2023-08-11T21:57:35.456Z,4.13
2023-08-11T22:02:38.821Z,3.90
2023-08-11T22:07:43.643Z,3.10
2023-08-11T22:12:47.820Z,3.92
2023-08-11T22:17:52.120Z,3.88
2023-08-11T22:22:54.946Z,3.50
2023-08-11T22:27:59.081Z,3.53
2023-08-11T22:33:02.635Z,3.80
2023-08-11T22:38:05.633Z,3.20
2023-08-11T22:43:09.953Z,3.00
2023-08-11T22:48:12.986Z,3.72
2023-08-11T22:53:15.857Z,4.45
2023-08-11T22:58:20.055Z,3.25
2023-08-11T23:03:22.888Z,3.72
2023-08-11T23:08:26.256Z,2.95
2023-08-11T23:13:30.670Z,3.95
2023-08-11T23:18:33.847Z,3.00
2023-08-11T23:23:36.904Z,3.83
2023-08-11T23:28:41.171Z,4.18
2023-08-11T23:33:44.115Z,3.20
2023-08-11T23:38:48.663Z,3.13
2023-08-11T23:43:53.208Z,3.00
2023-08-11T23:48:56.260Z,4.45
2023-08-11T23:53:59.111Z,4.70
2023-08-11T23:59:03.382Z,4.50
